KLVS

Las Vegas Municipal Airport

Las Vegas, New Mexico, USA
METAR KLVS 241153Z AUTO 22009KT 10SM CLR M05/M13 A2980 RMK AO2 SLP064 T10501133 10017 21050 55003
Observed Flight Rules
Feb-24 @ 11:53 UTC (31 minutes ago) Visual Flight Rules
Wind Visibility Clouds
220° at 9 knots 10 miles
  • Clear skies
Temperatures Readings
Current -5°C / 23°F
Dewpoint -13°C / 9°F
Humidity 54%
Altimeter 29.8" Hg
Pressure 1006.4 hPa
Elevation 2091
METAR KLVS 241153Z AUTO 22009KT 10SM CLR M05/M13 A2980 RMK AO2 SLP064 T10501133 10017 21050 55003
Observed Flight Rules
Feb-24 @ 11:53 UTC
(31 minutes ago)
VFR
Wind Visibility
220° at 9 knots 10 miles
Clouds
  • Clear skies
Temperature Dewpoint
-5°C / 23°F -13°C / 9°F
Humidity Altimeter Pressure
54% 29.8" Hg 1006.4 hPa